Terminal Aerodrome Forecast
Issued by NWS Louisville, KY

Home | Current Version | Previous Version | Text Only | Print | Product List | Glossary On
Versions: 1 2 3 4 5 6 7 8 9 10 11 12 13 14 15 16 17 18
662
FTUS43 KLMK 121157 AAA
TAFBWG
TAF AMD
KBWG 121157Z 1212/1312 VRB03KT 3SM -SN BR BKN022
     FM121500 32005KT P6SM BKN035
     FM122200 30009G17KT P6SM BKN035
     FM130200 32008KT P6SM BKN035
     FM130600 33005KT P6SM SCT150=

USA.gov is the U.S. government's official web portal to all federal, state and local government web resources and services.